Tag Archives: Piper Saratoga

[VIDEO] Takeoff and landing videos for Piper Cherokee, Saratoga & Bellanca Viking at Doylestown Airport

Yesterday, I was in the area, so I decided to stop by Doylestown Airport to do a little plane spotting.  I put together a few videos and pictures for your viewing pleasure.

First, we have a 1971 Piper Cherokee (PA-28-180) taxiing and taking off from runway 05. As far as weather, the skies were clear and wind was variable at around five knots (METAR listed at bottom of post).


The next video features a 1999 Piper Turbo Saratoga SP (PA-32R-301T) landing on runway 05.


Finally, this video depicts a 1973 Bellanca Super Viking 300A (17-30A) landing on runway 05.

For those you who enjoy my Doylestown Airport scenery, you can make your flying a bit more realistic by following the posted departure procedures after takeoff.

METAR

KDYL 052054Z AUTO VRB05KT 10SM CLR 17/05 A3018 RMK AO2 SLP222 T01670050 58012 TSNO

Share and Enjoy

  • Facebook
  • Twitter
  • Delicious
  • LinkedIn
  • StumbleUpon
  • Add to favorites
  • Email
  • RSS